createdAt,value
2017-04-01T00:00:08.334Z,0
2017-04-01T00:01:18.584Z,0
2017-04-01T00:02:28.837Z,0
2017-04-01T00:03:39.091Z,0
2017-04-01T00:04:49.032Z,0
2017-04-01T00:05:59.287Z,0
2017-04-01T00:07:09.546Z,0
2017-04-01T00:08:19.489Z,0
2017-04-01T00:09:29.426Z,0
2017-04-01T00:10:39.691Z,0
2017-04-01T00:11:49.959Z,0
2017-04-01T00:13:00.216Z,0
2017-04-01T00:14:10.473Z,0
2017-04-01T00:15:20.101Z,0
2017-04-01T00:16:30.393Z,0
2017-04-01T00:17:40.660Z,0
2017-04-01T00:18:50.602Z,0
2017-04-01T00:20:00.863Z,0
2017-04-01T00:21:11.117Z,0
2017-04-01T00:22:21.372Z,0
2017-04-01T00:23:31.629Z,0
2017-04-01T00:24:41.888Z,0
2017-04-01T00:25:52.153Z,0
2017-04-01T00:27:02.407Z,0
2017-04-01T00:28:12.659Z,0
2017-04-01T00:29:22.916Z,0
2017-04-01T00:30:33.167Z,0
2017-04-01T00:31:43.415Z,0
2017-04-01T00:32:53.668Z,0
2017-04-01T00:34:03.605Z,0
2017-04-01T00:35:13.863Z,0
2017-04-01T00:36:23.812Z,0
2017-04-01T00:37:33.759Z,0
2017-04-01T00:38:43.735Z,0
2017-04-01T00:39:53.992Z,0
2017-04-01T00:41:04.256Z,0
2017-04-01T00:42:14.513Z,0
2017-04-01T00:43:24.451Z,0
2017-04-01T00:44:34.393Z,0
2017-04-01T00:45:44.673Z,0
2017-04-01T00:46:54.610Z,0
2017-04-01T00:48:04.858Z,0
2017-04-01T00:49:14.803Z,0
2017-04-01T00:50:25.057Z,0
2017-04-01T00:51:35.322Z,0
2017-04-01T00:52:45.573Z,0
2017-04-01T00:53:55.834Z,0
2017-04-01T00:55:05.773Z,0
2017-04-01T00:56:16.033Z,0
2017-04-01T00:57:26.286Z,0
2017-04-01T00:58:36.540Z,0
2017-04-01T00:59:46.794Z,0
2017-04-01T01:00:57.046Z,0
2017-04-01T01:02:07.299Z,0
2017-04-01T01:03:17.549Z,0
2017-04-01T01:04:27.526Z,0
2017-04-01T01:05:36.842Z,0
2017-04-01T01:06:47.099Z,0
2017-04-01T01:07:57.354Z,0
2017-04-01T01:09:07.300Z,0
2017-04-01T01:10:17.240Z,0
2017-04-01T01:11:27.191Z,0
2017-04-01T01:12:37.458Z,0
2017-04-01T01:13:47.712Z,0
2017-04-01T01:14:57.965Z,0
2017-04-01T01:16:08.215Z,0
2017-04-01T01:17:17.840Z,0
2017-04-01T01:18:28.091Z,0
2017-04-01T01:19:37.719Z,0
2017-04-01T01:20:47.974Z,0
2017-04-01T01:21:57.608Z,0
2017-04-01T01:23:07.862Z,0
2017-04-01T01:24:18.118Z,0
2017-04-01T01:25:28.377Z,0
2017-04-01T01:26:38.640Z,0
2017-04-01T01:27:48.578Z,0
2017-04-01T01:28:58.835Z,0
2017-04-01T01:30:08.805Z,0
2017-04-01T01:31:19.058Z,0
2017-04-01T01:32:29.313Z,0
2017-04-01T01:33:39.258Z,0
2017-04-01T01:34:49.518Z,0
2017-04-01T01:35:59.772Z,0
2017-04-01T01:37:09.723Z,0
2017-04-01T01:38:19.345Z,0
2017-04-01T01:39:29.621Z,0
2017-04-01T01:40:39.560Z,0
2017-04-01T01:41:49.833Z,0
2017-04-01T01:43:00.087Z,0
2017-04-01T01:44:10.058Z,0
2017-04-01T01:45:20.311Z,0
2017-04-01T01:46:30.563Z,0
2017-04-01T01:47:40.510Z,0
2017-04-01T01:48:50.760Z,0
2017-04-01T01:50:01.007Z,0
2017-04-01T01:51:11.268Z,0
2017-04-01T01:52:21.208Z,0
2017-04-01T01:53:31.141Z,0
2017-04-01T01:54:41.399Z,0
2017-04-01T01:55:51.658Z,0
2017-04-01T01:57:01.909Z,0
2017-04-01T01:58:12.165Z,0
2017-04-01T01:59:22.105Z,0
2017-04-01T02:00:32.357Z,0
2017-04-01T02:01:42.618Z,0
2017-04-01T02:02:52.879Z,0
2017-04-01T02:04:03.139Z,0
2017-04-01T02:05:13.393Z,0
2017-04-01T02:06:23.654Z,0
2017-04-01T02:07:33.912Z,0
2017-04-01T02:08:43.855Z,0
2017-04-01T02:09:54.113Z,0
2017-04-01T02:11:04.364Z,0
2017-04-01T02:12:14.626Z,0
2017-04-01T02:13:24.254Z,0
2017-04-01T02:14:34.192Z,0
2017-04-01T02:15:44.453Z,0
2017-04-01T02:16:54.745Z,0
2017-04-01T02:18:04.998Z,0
2017-04-01T02:19:15.289Z,0
2017-04-01T02:20:25.541Z,0
2017-04-01T02:21:35.834Z,0
2017-04-01T02:22:45.772Z,0
2017-04-01T02:23:56.032Z,0
2017-04-01T02:25:06.290Z,0
2017-04-01T02:26:16.548Z,0
2017-04-01T02:27:26.498Z,0
2017-04-01T02:28:36.750Z,0
2017-04-01T02:29:46.687Z,0
2017-04-01T02:30:56.939Z,0
2017-04-01T02:32:07.201Z,0
2017-04-01T02:33:17.174Z,0
2017-04-01T02:34:27.429Z,0
2017-04-01T02:35:37.689Z,0
2017-04-01T02:36:47.945Z,0
2017-04-01T02:37:57.887Z,0
2017-04-01T02:39:07.827Z,0
2017-04-01T02:40:18.085Z,0
2017-04-01T02:41:28.029Z,0
2017-04-01T02:42:38.290Z,0
2017-04-01T02:43:48.554Z,0
2017-04-01T02:44:58.804Z,0
2017-04-01T02:46:09.055Z,0
2017-04-01T02:47:19.306Z,0
2017-04-01T02:48:29.255Z,0
2017-04-01T02:49:39.525Z,0
2017-04-01T02:50:49.469Z,0
2017-04-01T02:51:59.408Z,0
2017-04-01T02:53:09.662Z,0
2017-04-01T02:54:19.911Z,0
2017-04-01T02:55:31.772Z,0
2017-04-01T02:56:42.030Z,0
2017-04-01T02:57:52.281Z,0
2017-04-01T02:59:02.538Z,0
2017-04-01T03:00:12.798Z,0
2017-04-01T03:01:23.043Z,0
2017-04-01T03:02:32.671Z,0
2017-04-01T03:03:42.607Z,0
2017-04-01T03:04:52.864Z,0
2017-04-01T03:06:03.128Z,0
2017-04-01T03:07:13.477Z,0
2017-04-01T03:08:23.740Z,0
2017-04-01T03:09:33.679Z,0
2017-04-01T03:10:43.934Z,0
2017-04-01T03:11:53.878Z,0
2017-04-01T03:13:08.010Z,0
2017-04-01T03:14:17.942Z,0
2017-04-01T03:15:28.203Z,0
2017-04-01T03:16:38.458Z,0
2017-04-01T03:17:48.714Z,0
2017-04-01T03:18:59.054Z,0
2017-04-01T03:20:09.314Z,0
2017-04-01T03:21:19.254Z,0
2017-04-01T03:22:29.506Z,0
2017-04-01T03:23:39.773Z,0
2017-04-01T03:24:49.862Z,0
2017-04-01T03:26:00.118Z,0
2017-04-01T03:27:10.055Z,0
2017-04-01T03:28:19.993Z,0
2017-04-01T03:29:29.933Z,0
2017-04-01T03:30:40.437Z,0
2017-04-01T03:31:50.692Z,0
2017-04-01T03:33:00.943Z,0
2017-04-01T03:34:10.571Z,0
2017-04-01T03:35:20.825Z,0
2017-04-01T03:36:31.177Z,0
2017-04-01T03:37:41.433Z,0
2017-04-01T03:38:51.691Z,0
2017-04-01T03:40:01.951Z,0
2017-04-01T03:41:12.207Z,0
2017-04-01T03:42:22.627Z,0
2017-04-01T03:43:32.889Z,0
2017-04-01T03:44:43.147Z,0
2017-04-01T03:45:53.091Z,0
2017-04-01T03:47:03.341Z,0
2017-04-01T03:48:13.068Z,0
2017-04-01T03:49:22.697Z,0
2017-04-01T03:50:32.634Z,0
2017-04-01T03:51:42.887Z,0
2017-04-01T03:52:53.144Z,0
2017-04-01T03:54:03.689Z,0
2017-04-01T03:55:13.628Z,0
2017-04-01T03:56:23.568Z,0
2017-04-01T03:57:33.829Z,0
2017-04-01T03:58:43.776Z,0
2017-04-01T03:59:54.210Z,0
2017-04-01T04:01:04.464Z,0
2017-04-01T04:02:14.088Z,0
2017-04-01T04:03:24.043Z,0
2017-04-01T04:04:33.665Z,0
2017-04-01T04:05:43.711Z,0
2017-04-01T04:06:53.653Z,0
2017-04-01T04:08:03.910Z,0
2017-04-01T04:09:14.161Z,4
2017-04-01T04:10:24.417Z,4
2017-04-01T04:11:34.819Z,4
2017-04-01T04:12:45.075Z,0
2017-04-01T04:13:55.021Z,4
2017-04-01T04:15:05.271Z,4
2017-04-01T04:16:15.218Z,4
2017-04-01T04:17:25.461Z,4
2017-04-01T04:18:35.724Z,8
2017-04-01T04:19:45.978Z,4
2017-04-01T04:20:55.603Z,8
2017-04-01T04:22:05.235Z,12
2017-04-01T04:23:15.588Z,12
2017-04-01T04:24:25.836Z,12
2017-04-01T04:25:36.092Z,12
2017-04-01T04:26:46.354Z,16
2017-04-01T04:27:56.629Z,16
2017-04-01T04:29:06.983Z,20
2017-04-01T04:30:17.241Z,20
2017-04-01T04:31:27.499Z,20
2017-04-01T04:32:37.744Z,24
2017-04-01T04:33:48.000Z,24
2017-04-01T04:34:58.402Z,28
2017-04-01T04:36:08.709Z,32
2017-04-01T04:37:18.643Z,40
2017-04-01T04:38:28.587Z,44
2017-04-01T04:39:38.210Z,48
2017-04-01T04:40:48.624Z,48
2017-04-01T04:41:58.875Z,56
2017-04-01T04:43:09.135Z,64
2017-04-01T04:44:19.396Z,72
2017-04-01T04:45:29.646Z,80
2017-04-01T04:46:40.147Z,84
2017-04-01T04:47:50.083Z,96
2017-04-01T04:49:00.338Z,104
2017-04-01T04:50:10.589Z,104
2017-04-01T04:51:20.844Z,100
2017-04-01T04:52:31.204Z,108
2017-04-01T04:53:41.460Z,116
2017-04-01T04:54:51.721Z,120
2017-04-01T04:56:01.977Z,120
2017-04-01T04:57:12.232Z,128
2017-04-01T04:58:22.668Z,140
2017-04-01T04:59:32.612Z,156
2017-04-01T05:00:42.552Z,176
2017-04-01T05:01:52.507Z,188
2017-04-01T05:03:02.754Z,204
2017-04-01T05:04:12.690Z,224
2017-04-01T05:05:22.626Z,248
2017-04-01T05:06:32.888Z,268
2017-04-01T05:07:43.151Z,288
2017-04-01T05:08:53.412Z,288
2017-04-01T05:10:03.357Z,300
2017-04-01T05:11:13.612Z,324
2017-04-01T05:12:23.901Z,332
2017-04-01T05:13:34.160Z,344
2017-04-01T05:14:44.417Z,368
2017-04-01T05:15:54.668Z,372
2017-04-01T05:17:04.921Z,396
2017-04-01T05:18:14.867Z,408
2017-04-01T05:19:25.122Z,432
2017-04-01T05:20:35.060Z,440
2017-04-01T05:21:45.316Z,456
2017-04-01T05:22:55.253Z,480
2017-04-01T05:24:05.197Z,512
2017-04-01T05:25:15.452Z,524
2017-04-01T05:26:25.074Z,568
2017-04-01T05:27:35.324Z,564
2017-04-01T05:28:45.265Z,592
2017-04-01T05:29:55.522Z,608
2017-04-01T05:31:05.777Z,604
2017-04-01T05:32:16.038Z,600
2017-04-01T05:33:26.297Z,608
2017-04-01T05:34:36.549Z,664
2017-04-01T05:35:46.798Z,672
2017-04-01T05:36:57.055Z,728
2017-04-01T05:38:07.314Z,824
2017-04-01T05:39:17.569Z,792
2017-04-01T05:40:27.828Z,800
2017-04-01T05:41:38.079Z,796
2017-04-01T05:42:48.332Z,896
2017-04-01T05:43:58.583Z,908
2017-04-01T05:45:08.843Z,944
2017-04-01T05:46:19.093Z,940
2017-04-01T05:47:29.348Z,952
2017-04-01T05:48:39.602Z,996
2017-04-01T05:49:49.855Z,988
2017-04-01T05:50:59.794Z,1052
2017-04-01T05:52:09.736Z,1148
2017-04-01T05:53:19.681Z,1104
2017-04-01T05:54:29.934Z,1224
2017-04-01T05:55:40.210Z,1196
2017-04-01T05:56:50.465Z,1248
2017-04-01T05:58:00.723Z,1200
2017-04-01T05:59:10.658Z,1148
2017-04-01T06:00:20.914Z,1316
2017-04-01T06:01:31.170Z,1300
2017-04-01T06:02:41.427Z,1232
2017-04-01T06:03:51.687Z,1512
2017-04-01T06:05:01.943Z,1620
2017-04-01T06:06:11.895Z,1568
2017-04-01T06:07:21.838Z,1376
2017-04-01T06:08:32.095Z,1288
2017-04-01T06:09:42.349Z,1748
2017-04-01T06:10:52.600Z,2068
2017-04-01T06:12:02.853Z,1984
2017-04-01T06:13:12.481Z,1824
2017-04-01T06:14:22.733Z,1820
2017-04-01T06:15:32.984Z,1700
2017-04-01T06:16:43.251Z,1736
2017-04-01T06:17:53.500Z,1760
2017-04-01T06:19:03.443Z,1884
2017-04-01T06:20:13.699Z,1904
2017-04-01T06:21:23.959Z,1996
2017-04-01T06:22:33.587Z,1992
2017-04-01T06:23:43.840Z,1972
2017-04-01T06:24:54.095Z,1924
2017-04-01T06:26:04.350Z,1656
2017-04-01T06:27:14.293Z,1904
2017-04-01T06:28:24.550Z,1680
2017-04-01T06:29:34.803Z,1812
2017-04-01T06:30:45.057Z,1736
2017-04-01T06:31:55.309Z,1992
2017-04-01T06:33:05.570Z,2332
2017-04-01T06:34:15.847Z,2156
2017-04-01T06:35:25.790Z,2484
2017-04-01T06:36:36.044Z,2872
2017-04-01T06:37:46.297Z,2532
2017-04-01T06:38:56.556Z,2912
2017-04-01T06:40:06.492Z,2552
2017-04-01T06:41:16.749Z,2536
2017-04-01T06:42:27.014Z,2732
2017-04-01T06:43:36.952Z,2812
2017-04-01T06:44:47.215Z,2784
2017-04-01T06:45:57.161Z,2348
2017-04-01T06:47:07.100Z,2756
2017-04-01T06:48:17.350Z,2656
2017-04-01T06:49:27.623Z,3108
2017-04-01T06:50:37.881Z,3020
2017-04-01T06:51:48.137Z,3140
2017-04-01T06:52:58.402Z,3356
2017-04-01T06:54:08.351Z,3076
2017-04-01T06:55:17.982Z,2892
2017-04-01T06:56:28.283Z,2848
2017-04-01T06:57:38.540Z,3072
2017-04-01T06:58:48.798Z,2772
2017-04-01T06:59:59.087Z,3060
2017-04-01T07:01:09.342Z,3164
2017-04-01T07:02:18.966Z,3600
2017-04-01T07:03:29.217Z,3680
2017-04-01T07:04:39.473Z,4516
2017-04-01T07:05:49.417Z,4112
2017-04-01T07:06:59.691Z,4240
2017-04-01T07:08:09.951Z,3464
2017-04-01T07:09:19.896Z,3728
2017-04-01T07:10:30.153Z,3620
2017-04-01T07:11:40.414Z,4376
2017-04-01T07:12:50.358Z,3880
2017-04-01T07:14:00.651Z,4876
2017-04-01T07:15:10.600Z,4556
2017-04-01T07:16:20.861Z,4376
2017-04-01T07:17:31.148Z,3904
2017-04-01T07:18:41.092Z,3972
2017-04-01T07:19:51.037Z,3820
2017-04-01T07:21:01.294Z,4072
2017-04-01T07:22:11.553Z,4396
2017-04-01T07:23:21.497Z,4300
2017-04-01T07:24:31.752Z,4080
2017-04-01T07:25:41.694Z,3844
2017-04-01T07:26:51.962Z,4188
2017-04-01T07:28:01.902Z,4528
2017-04-01T07:29:11.845Z,4280
2017-04-01T07:30:22.113Z,4332
2017-04-01T07:31:32.371Z,4288
2017-04-01T07:32:42.315Z,5224
2017-04-01T07:33:52.563Z,4952
2017-04-01T07:35:02.828Z,5448
2017-04-01T07:36:13.098Z,5328
2017-04-01T07:37:23.047Z,4568
2017-04-01T07:38:33.306Z,5476
2017-04-01T07:39:43.567Z,5172
2017-04-01T07:40:53.203Z,5708
2017-04-01T07:42:03.456Z,6040
2017-04-01T07:43:13.708Z,4796
2017-04-01T07:44:23.966Z,4528
2017-04-01T07:45:34.222Z,4544
2017-04-01T07:46:44.475Z,3948
2017-04-01T07:47:54.731Z,3944
2017-04-01T07:49:04.991Z,4552
2017-04-01T07:50:14.619Z,4764
2017-04-01T07:51:24.563Z,5928
2017-04-01T07:52:34.834Z,7128
2017-04-01T07:53:45.090Z,5920
2017-04-01T07:54:55.038Z,4956
2017-04-01T07:56:05.295Z,5948
2017-04-01T07:57:15.550Z,7568
2017-04-01T07:58:25.810Z,6288
2017-04-01T07:59:35.755Z,5708
2017-04-01T08:00:45.700Z,8332
2017-04-01T08:01:55.959Z,6348
2017-04-01T08:03:05.904Z,4872
2017-04-01T08:04:16.156Z,6332
2017-04-01T08:05:26.408Z,6824
2017-04-01T08:06:36.351Z,7508
2017-04-01T08:07:46.291Z,6952
2017-04-01T08:08:56.550Z,6612
2017-04-01T08:10:06.798Z,7788
2017-04-01T08:11:17.054Z,5656
2017-04-01T08:12:26.995Z,8268
2017-04-01T08:13:36.627Z,7604
2017-04-01T08:14:46.884Z,7448
2017-04-01T08:15:57.139Z,5972
2017-04-01T08:17:07.084Z,6192
2017-04-01T08:18:17.021Z,4948
2017-04-01T08:19:27.279Z,5568
2017-04-01T08:20:37.534Z,6044
2017-04-01T08:21:47.791Z,7520
2017-04-01T08:22:58.048Z,7092
2017-04-01T08:24:08.307Z,8124
2017-04-01T08:25:18.563Z,8148
2017-04-01T08:26:28.821Z,7732
2017-04-01T08:27:38.766Z,8252
2017-04-01T08:28:49.021Z,8720
2017-04-01T08:29:58.650Z,8988
2017-04-01T08:31:08.913Z,8808
2017-04-01T08:32:19.176Z,8656
2017-04-01T08:33:29.436Z,8872
2017-04-01T08:34:39.380Z,9028
2017-04-01T08:35:49.326Z,9316
2017-04-01T08:36:59.580Z,10020
2017-04-01T08:38:09.838Z,10484
2017-04-01T08:39:20.093Z,9080
2017-04-01T08:40:30.359Z,8684
2017-04-01T08:41:39.994Z,8540
2017-04-01T08:42:50.253Z,9060
2017-04-01T08:44:00.511Z,9384
2017-04-01T08:45:10.772Z,8224
2017-04-01T08:46:21.029Z,7292
2017-04-01T08:47:31.287Z,7180
2017-04-01T08:48:41.543Z,7112
2017-04-01T08:49:51.800Z,7228
2017-04-01T08:51:02.058Z,7968
2017-04-01T08:52:12.003Z,8040
2017-04-01T08:53:22.253Z,7088
2017-04-01T08:54:32.192Z,6700
2017-04-01T08:55:42.445Z,6412
2017-04-01T08:56:52.080Z,6792
2017-04-01T08:58:02.029Z,7468
2017-04-01T08:59:12.012Z,7300
2017-04-01T09:00:22.273Z,7140
2017-04-01T09:01:31.910Z,6672
2017-04-01T09:02:42.175Z,6440
2017-04-01T09:03:52.433Z,5976
2017-04-01T09:05:02.383Z,5532
2017-04-01T09:06:12.352Z,5236
2017-04-01T09:07:22.609Z,5212
2017-04-01T09:08:32.872Z,5160
2017-04-01T09:09:43.124Z,5288
2017-04-01T09:10:53.390Z,5664
2017-04-01T09:12:03.644Z,6280
2017-04-01T09:13:13.591Z,6708
2017-04-01T09:14:23.267Z,7084
2017-04-01T09:15:33.526Z,7324
2017-04-01T09:16:43.784Z,7568
2017-04-01T09:17:54.044Z,8752
2017-04-01T09:19:04.310Z,8796
2017-04-01T09:20:14.255Z,8756
2017-04-01T09:21:24.514Z,8792
2017-04-01T09:22:34.772Z,8368
2017-04-01T09:23:45.042Z,7704
2017-04-01T09:24:54.990Z,7296
2017-04-01T09:26:05.245Z,7448
2017-04-01T09:27:15.195Z,7360
2017-04-01T09:28:25.451Z,7024
2017-04-01T09:29:35.714Z,7448
2017-04-01T09:30:45.660Z,8416
2017-04-01T09:31:55.607Z,9088
2017-04-01T09:33:05.557Z,9944
2017-04-01T09:34:15.188Z,10120
2017-04-01T09:35:25.451Z,10296
2017-04-01T09:36:35.710Z,10324
2017-04-01T09:37:45.974Z,10712
2017-04-01T09:38:55.916Z,11348
2017-04-01T09:40:06.178Z,11544
2017-04-01T09:41:16.123Z,11436
2017-04-01T09:42:26.383Z,11360
2017-04-01T09:43:36.341Z,11596
2017-04-01T09:44:46.608Z,11100
2017-04-01T09:45:56.870Z,10476
2017-04-01T09:47:06.819Z,10784
2017-04-01T09:48:17.090Z,10248
2017-04-01T09:49:27.349Z,10292
2017-04-01T09:50:37.299Z,11408
2017-04-01T09:51:47.562Z,11856
2017-04-01T09:52:57.509Z,12176
2017-04-01T09:54:07.775Z,12636
2017-04-01T09:55:18.034Z,13056
2017-04-01T09:56:27.989Z,12776
2017-04-01T09:57:38.246Z,11960
2017-04-01T09:58:48.192Z,11048
2017-04-01T09:59:58.141Z,10772
2017-04-01T10:01:08.404Z,10392
2017-04-01T10:02:18.668Z,9980
2017-04-01T10:03:28.956Z,9532
2017-04-01T10:04:39.210Z,10124
2017-04-01T10:05:49.476Z,9904
2017-04-01T10:06:59.739Z,9584
2017-04-01T10:08:10.002Z,9436
2017-04-01T10:09:20.276Z,9528
2017-04-01T10:10:30.224Z,9012
2017-04-01T10:11:40.484Z,8896
2017-04-01T10:12:50.743Z,9456
2017-04-01T10:14:01.003Z,10840
2017-04-01T10:15:11.264Z,9704
2017-04-01T10:16:21.536Z,8788
2017-04-01T10:17:31.805Z,9080
2017-04-01T10:18:41.749Z,8648
2017-04-01T10:19:52.011Z,8660
2017-04-01T10:21:02.275Z,9024
2017-04-01T10:22:12.537Z,8576
2017-04-01T10:23:22.209Z,7900
2017-04-01T10:24:32.157Z,8972
2017-04-01T10:25:42.419Z,8560
2017-04-01T10:26:52.372Z,8736
2017-04-01T10:28:02.640Z,8924
2017-04-01T10:29:12.903Z,10592
2017-04-01T10:30:23.162Z,11432
2017-04-01T10:31:33.425Z,10632
2017-04-01T10:32:43.367Z,11328
2017-04-01T10:33:52.997Z,10748
2017-04-01T10:35:03.256Z,10908
2017-04-01T10:36:13.514Z,10920
2017-04-01T10:37:23.458Z,11976
2017-04-01T10:38:33.729Z,11708
2017-04-01T10:39:43.992Z,12768
2017-04-01T10:40:54.250Z,15872
2017-04-01T10:42:04.514Z,16576
2017-04-01T10:43:14.459Z,16384
2017-04-01T10:44:24.407Z,15828
2017-04-01T10:45:34.350Z,15532
2017-04-01T10:46:44.304Z,14416
2017-04-01T10:47:54.264Z,13848
2017-04-01T10:49:04.531Z,14684
2017-04-01T10:50:14.483Z,14248
2017-04-01T10:51:24.427Z,12884
2017-04-01T10:52:34.373Z,10524
2017-04-01T10:53:44.644Z,11384
2017-04-01T10:54:54.591Z,11572
2017-04-01T10:56:04.853Z,11964
2017-04-01T10:57:15.112Z,11280
2017-04-01T10:58:25.368Z,11764
2017-04-01T10:59:35.313Z,13040
2017-04-01T11:00:45.572Z,14912
2017-04-01T11:01:55.524Z,14388
2017-04-01T11:03:05.787Z,12612
2017-04-01T11:04:15.421Z,15932
2017-04-01T11:05:25.060Z,13296
2017-04-01T11:06:35.009Z,16512
2017-04-01T11:07:45.269Z,14672
2017-04-01T11:08:55.524Z,12416
2017-04-01T11:10:05.166Z,15132
2017-04-01T11:11:15.115Z,19872
2017-04-01T11:12:25.074Z,22496
2017-04-01T11:13:35.337Z,18720
2017-04-01T11:14:45.596Z,17952
2017-04-01T11:15:55.863Z,18784
2017-04-01T11:17:06.128Z,46720
2017-04-01T11:18:16.080Z,54112
2017-04-01T11:19:26.036Z,55520
2017-04-01T11:20:36.311Z,52704
2017-04-01T11:21:46.264Z,54880
2017-04-01T11:22:56.532Z,56832
2017-04-01T11:24:06.792Z,53984
2017-04-01T11:25:17.058Z,52192
2017-04-01T11:26:27.009Z,52352
2017-04-01T11:27:36.958Z,54272
2017-04-01T11:28:47.231Z,55072
2017-04-01T11:29:57.187Z,56288
2017-04-01T11:31:07.461Z,58944
2017-04-01T11:32:17.734Z,55936
2017-04-01T11:33:27.997Z,54208
2017-04-01T11:34:38.271Z,54592
2017-04-01T11:35:48.545Z,57856
2017-04-01T11:36:58.817Z,50240
2017-04-01T11:38:08.781Z,36512
2017-04-01T11:39:18.737Z,32576
2017-04-01T11:40:29.012Z,28768
2017-04-01T11:41:39.287Z,28320
2017-04-01T11:42:49.561Z,42944
2017-04-01T11:43:59.521Z,42912
2017-04-01T11:45:09.796Z,29472
2017-04-01T11:46:20.069Z,48224
2017-04-01T11:47:30.028Z,43264
2017-04-01T11:48:39.986Z,35808
2017-04-01T11:49:50.302Z,46144
2017-04-01T11:51:00.573Z,52736
2017-04-01T11:52:10.853Z,55264
2017-04-01T11:53:20.812Z,54016
2017-04-01T11:54:31.086Z,54208
2017-04-01T11:55:41.366Z,54464
2017-04-01T11:56:51.634Z,53056
2017-04-01T11:58:01.901Z,56448
2017-04-01T11:59:11.861Z,55584
2017-04-01T12:00:22.142Z,54112
2017-04-01T12:01:32.462Z,55968
2017-04-01T12:02:42.738Z,57184
2017-04-01T12:03:53.011Z,56672
2017-04-01T12:05:03.286Z,57408
2017-04-01T12:06:13.558Z,60288
2017-04-01T12:07:23.521Z,59168
2017-04-01T12:08:33.501Z,55456
2017-04-01T12:09:43.777Z,54592
2017-04-01T12:10:54.052Z,56000
2017-04-01T12:12:04.010Z,53632
2017-04-01T12:13:14.284Z,56384
2017-04-01T12:14:24.555Z,57280
2017-04-01T12:15:34.826Z,55616
2017-04-01T12:16:45.103Z,56224
2017-04-01T12:17:55.372Z,56032
2017-04-01T12:19:05.685Z,56256
2017-04-01T12:20:15.962Z,56544
2017-04-01T12:21:25.932Z,55168
2017-04-01T12:22:35.894Z,52640
2017-04-01T12:23:46.172Z,50688
2017-04-01T12:24:56.454Z,51808
2017-04-01T12:26:06.417Z,52480
2017-04-01T12:27:16.696Z,53120
2017-04-01T12:28:26.685Z,54976
2017-04-01T12:29:36.967Z,55232
2017-04-01T12:30:47.252Z,56544
2017-04-01T12:31:57.223Z,53216
2017-04-01T12:33:07.191Z,50496
2017-04-01T12:34:17.614Z,52576
2017-04-01T12:35:27.895Z,54144
2017-04-01T12:36:37.545Z,57248
2017-04-01T12:37:47.814Z,57184
2017-04-01T12:38:58.094Z,56704
2017-04-01T12:40:08.370Z,56480
2017-04-01T12:41:18.647Z,52608
2017-04-01T12:42:28.944Z,52320
2017-04-01T12:43:39.226Z,53472
2017-04-01T12:44:49.501Z,53088
2017-04-01T12:45:59.846Z,56192
2017-04-01T12:47:10.146Z,51456
2017-04-01T12:48:20.434Z,53152
2017-04-01T12:49:30.711Z,53344
2017-04-01T12:50:40.675Z,53184
2017-04-01T12:51:50.959Z,51872
2017-04-01T12:53:00.924Z,51456
2017-04-01T12:54:11.204Z,54976
2017-04-01T12:55:21.171Z,56896
2017-04-01T12:56:31.447Z,54272
2017-04-01T12:57:41.731Z,48640
2017-04-01T12:58:52.009Z,51168
2017-04-01T13:00:02.302Z,53952
2017-04-01T13:01:12.606Z,54784
2017-04-01T13:02:22.569Z,52512
2017-04-01T13:03:32.221Z,49536
2017-04-01T13:04:41.874Z,50464
2017-04-01T13:05:52.155Z,52064
2017-04-01T13:07:02.435Z,57376
2017-04-01T13:08:12.724Z,54752
2017-04-01T13:09:22.690Z,52192
2017-04-01T13:10:32.968Z,50816
2017-04-01T13:11:42.624Z,48864
2017-04-01T13:12:52.904Z,50400
2017-04-01T13:14:03.183Z,47584
2017-04-01T13:15:13.162Z,47744
2017-04-01T13:16:23.129Z,49632
2017-04-01T13:17:33.099Z,48608
2017-04-01T13:18:43.071Z,48224
2017-04-01T13:19:53.042Z,47200
2017-04-01T13:21:03.327Z,45600
2017-04-01T13:22:13.613Z,43232
2017-04-01T13:23:22.949Z,40896
2017-04-01T13:24:32.910Z,40768
2017-04-01T13:25:43.188Z,46528
2017-04-01T13:26:53.460Z,48928
2017-04-01T13:28:03.745Z,50784
2017-04-01T13:29:14.030Z,54112
2017-04-01T13:30:24.012Z,53856
2017-04-01T13:31:34.301Z,54208
2017-04-01T13:32:44.271Z,55360
2017-04-01T13:33:54.555Z,53824
2017-04-01T13:35:04.852Z,57056
2017-04-01T13:36:15.134Z,51808
2017-04-01T13:37:25.104Z,39520
2017-04-01T13:38:35.382Z,41440
2017-04-01T13:39:45.656Z,39968
2017-04-01T13:40:55.935Z,35520
2017-04-01T13:42:06.210Z,40576
2017-04-01T13:43:16.490Z,40288
2017-04-01T13:44:26.133Z,32416
2017-04-01T13:45:35.783Z,43648
2017-04-01T13:46:46.053Z,51328
2017-04-01T13:47:56.007Z,45120
2017-04-01T13:49:06.280Z,30880
2017-04-01T13:50:16.239Z,31232
2017-04-01T13:51:26.199Z,35072
2017-04-01T13:52:35.844Z,27680
2017-04-01T13:53:46.123Z,31392
2017-04-01T13:54:55.766Z,29888
2017-04-01T13:56:06.033Z,25760
2017-04-01T13:57:16.311Z,31520
2017-04-01T13:58:26.267Z,32896
2017-04-01T13:59:36.541Z,29376
2017-04-01T14:00:46.503Z,31072
2017-04-01T14:01:56.770Z,40192
2017-04-01T14:03:07.038Z,42176
2017-04-01T14:04:16.994Z,29728
2017-04-01T14:05:26.960Z,16544
2017-04-01T14:06:36.915Z,28416
2017-04-01T14:07:47.184Z,30176
2017-04-01T14:08:57.136Z,40448
2017-04-01T14:10:07.096Z,34240
2017-04-01T14:11:17.058Z,32192
2017-04-01T14:12:27.331Z,34816
2017-04-01T14:13:37.595Z,40448
2017-04-01T14:14:47.860Z,43872
2017-04-01T14:15:58.132Z,38720
2017-04-01T14:17:08.084Z,48512
2017-04-01T14:18:18.346Z,53056
2017-04-01T14:19:28.611Z,60928
2017-04-01T14:20:38.573Z,67776
2017-04-01T14:21:48.523Z,63104
2017-04-01T14:22:58.797Z,60608
2017-04-01T14:24:09.063Z,60864
2017-04-01T14:25:19.331Z,61984
2017-04-01T14:26:29.635Z,62304
2017-04-01T14:27:39.592Z,63776
2017-04-01T14:28:49.585Z,64832
2017-04-01T14:29:59.545Z,62944
2017-04-01T14:31:09.813Z,61536
2017-04-01T14:32:20.084Z,63136
2017-04-01T14:33:30.355Z,62304
2017-04-01T14:34:39.999Z,59776
2017-04-01T14:35:50.265Z,60352
2017-04-01T14:37:00.540Z,61696
2017-04-01T14:38:10.815Z,61952
2017-04-01T14:39:21.091Z,57248
2017-04-01T14:40:31.368Z,59200
2017-04-01T14:41:41.330Z,56896
2017-04-01T14:42:51.286Z,58112
2017-04-01T14:44:01.564Z,57152
2017-04-01T14:45:11.834Z,54816
2017-04-01T14:46:21.825Z,50624
2017-04-01T14:47:30.837Z,35776
2017-04-01T14:48:40.791Z,38912
2017-04-01T14:49:51.061Z,33376
2017-04-01T14:51:01.017Z,46688
2017-04-01T14:52:11.291Z,54752
2017-04-01T14:53:21.250Z,53856
2017-04-01T14:54:31.218Z,39744
2017-04-01T14:55:41.174Z,41344
2017-04-01T14:56:51.447Z,47040
2017-04-01T14:58:01.716Z,46784
2017-04-01T14:59:11.670Z,46080
2017-04-01T15:00:21.314Z,45472
2017-04-01T15:01:31.266Z,45760
2017-04-01T15:02:40.907Z,39776
2017-04-01T15:03:51.176Z,45632
2017-04-01T15:05:01.449Z,48896
2017-04-01T15:06:11.399Z,50400
2017-04-01T15:07:21.670Z,49920
2017-04-01T15:08:31.624Z,51424
2017-04-01T15:09:41.579Z,54272
2017-04-01T15:10:51.844Z,53408
2017-04-01T15:12:02.114Z,51264
2017-04-01T15:13:12.391Z,51104
2017-04-01T15:14:22.656Z,53056
2017-04-01T15:15:32.608Z,51840
2017-04-01T15:16:42.878Z,50560
2017-04-01T15:17:53.155Z,48288
2017-04-01T15:19:03.114Z,48608
2017-04-01T15:20:13.078Z,46336
2017-04-01T15:21:23.353Z,48736
2017-04-01T15:22:33.002Z,48960
2017-04-01T15:23:43.268Z,48832
2017-04-01T15:24:53.539Z,49504
2017-04-01T15:26:03.811Z,48928
2017-04-01T15:27:14.083Z,46112
2017-04-01T15:28:24.350Z,45760
2017-04-01T15:29:33.676Z,43584
2017-04-01T15:30:43.955Z,42048
2017-04-01T15:31:54.223Z,39648
2017-04-01T15:33:04.172Z,41824
2017-04-01T15:34:14.438Z,41312
2017-04-01T15:35:24.397Z,37056
2017-04-01T15:36:34.660Z,32416
2017-04-01T15:37:44.614Z,27936
2017-04-01T15:38:54.565Z,23104
2017-04-01T15:40:04.847Z,22752
2017-04-01T15:41:15.115Z,22976
2017-04-01T15:42:25.072Z,23328
2017-04-01T15:43:35.031Z,23488
2017-04-01T15:44:45.297Z,17408
2017-04-01T15:45:55.255Z,18112
2017-04-01T15:47:05.528Z,16864
2017-04-01T15:48:15.481Z,14672
2017-04-01T15:49:25.118Z,11796
2017-04-01T15:50:35.387Z,8988
2017-04-01T15:51:45.663Z,7188